Flight Track Log - Related Links

Times and Time Zones

All times are in EDT time to prevent confusion due to time zone crossing. See the N1259W flight status page for this flight to view local times or setup timezone preferences in your user account.

Time Position Orientation Groundspeed Altitude Reporting Facility
EDT Latitude Longitude Course Direction KTS MPH feet Rate Location/Type
Sun 04:25:29 PM 37.6606 -97.4194 326° Northwest 117 135 1,700  Level Kansas City Center
Sun 04:26:36 PM 37.6950 -97.4483 326° Northwest 176 203 2,900 1,154 Climbing Kansas City Center
Sun 04:27:13 PM 37.6972 -97.4789 275° West 185 213 3,700 1,727 Climbing Kansas City Center
Sun 04:27:42 PM 37.7000 -97.5217 275° West 180 207 4,800 1,452 Climbing Kansas City Center
Sun 04:28:15 PM 37.7014 -97.5414 275° West 182 209 5,200 1,377 Climbing Kansas City Center
Sun 04:28:43 PM 37.7039 -97.5819 274° West 179 206 6,200 1,839 Climbing Kansas City Center
Sun 04:29:17 PM 37.7053 -97.6153 273° West 177 204 7,100 1,600 Climbing Kansas City Center
Sun 04:29:43 PM 37.7075 -97.6422 276° West 175 201 7,800 1,742 Climbing Kansas City Center
Sun 04:30:19 PM 37.7089 -97.6764 273° West 175 201 8,900 1,653 Climbing Kansas City Center
Sun 04:31:21 PM 37.7139 -97.7336 276° West 168 193 10,500 1,355 Climbing Kansas City Center
Sun 04:32:23 PM 37.7183 -97.7903 276° West 162 186 11,700 726 Climbing Kansas City Center
Sun 04:33:25 PM 37.7231 -97.8561 275° West 180 207 12,000 145 Climbing Kansas City Center
Sun 04:34:27 PM 37.7275 -97.9356 274° West 215 247 12,000  Level Kansas City Center
Sun 04:35:29 PM 37.7328 -98.0147 275° West 224 258 12,000 -194 Level Kansas City Center
Sun 04:36:31 PM 37.7233 -98.0861 261° West 224 258 11,600 -783 Descending Kansas City Center
Sun 04:37:24 PM 37.6664 -98.0528 155° Southeast 271 312 10,500 -1,416 Descending Kansas City Center
Sun 04:38:00 PM 37.6694 -97.9967 86° East 276 318 9,500 -1,775 Descending Kansas City Center
Sun 04:38:35 PM 37.6736 -97.9478 84° East 266 306 8,400 -1,791 Descending Kansas City Center
Sun 04:39:07 PM 37.6653 -97.9075 105° East 241 277 7,500 -1,645 Descending Kansas City Center
Sun 04:39:37 PM 37.6508 -97.8772 121° Southeast 236 272 6,700 -2,066 Descending Kansas City Center
Sun 04:40:08 PM 37.6292 -97.8364 124° Southeast 217 250 5,400 -1,935 Descending Kansas City Center
Sun 04:40:39 PM 37.6192 -97.8114 117° Southeast 226 260 4,700 -1,900 Descending Kansas City Center
Sun 04:41:08 PM 37.5981 -97.7722 124° Southeast 216 249 3,500 -1,548 Descending Kansas City Center
Sun 04:41:41 PM 37.5869 -97.7481 120° Southeast 220 253 3,100 -316 Descending Kansas City Center
Sun 04:42:43 PM 37.5467 -97.6769 126° Southeast 214 246 3,000 -48 Descending Kansas City Center
Sun 04:43:45 PM 37.5144 -97.6186 125° Southeast 208 239 3,000 47 Level Kansas City Center
Sun 04:44:52 PM 37.4944 -97.5453 109° East 198 228 3,100 48 Climbing Kansas City Center
Sun 04:45:49 PM 37.5189 -97.4958 58° Northeast 207 238 3,100  Level Kansas City Center
Sun 04:46:51 PM 37.5625 -97.4631 31° Northeast 196 226 3,100 -387 Level Kansas City Center
Sun 04:47:53 PM 37.6006 -97.4453 20° North 173 199 2,300 -726 Descending Kansas City Center
Sun 04:48:55 PM 37.6308 -97.4317 20° North 143 165 1,600 -677 Descending Kansas City Center
Sun 04:51:00 PM 37.6363 -97.4227 122° Southeast  Level FlightAware Approximate
Sun 04:58:00 PM 37.6333 -97.4167 122° Southeast  Level FlightAware Approximate
Sun 04:59:00 PM 37.6499 -97.4331 122° Southeast  Level Estimated
Sun 05:00:00 PM 37.6499 -97.4331 122° Southeast  Level Estimated
Sun 05:01:00 PM 37.6499 -97.4331 122° Southeast  Level Estimated

Login

Don't have an account? Register now (free) for customized features, flight alerts, and more!